createdAt,value
2023-04-16T00:00:03.803Z,99254.31
2023-04-16T00:02:40.008Z,99250.91
2023-04-16T00:05:10.942Z,99263.63
2023-04-16T00:07:40.073Z,99259.38
2023-04-16T00:10:09.918Z,99250.03
2023-04-16T00:12:38.749Z,99260.19
2023-04-16T00:15:08.331Z,99258.50
2023-04-16T00:17:36.923Z,99258.53
2023-04-16T00:20:06.720Z,99266.97
2023-04-16T00:22:37.398Z,99274.59
2023-04-16T00:25:07.182Z,99263.56
2023-04-16T00:27:35.971Z,99280.53
2023-04-16T00:30:05.018Z,99276.28
2023-04-16T00:32:33.998Z,99279.63
2023-04-16T00:35:03.327Z,99280.47
2023-04-16T00:37:32.283Z,99287.25
2023-04-16T00:40:02.622Z,99288.13
2023-04-16T00:42:32.000Z,99277.94
2023-04-16T00:45:00.820Z,99285.56
2023-04-16T00:47:30.062Z,99287.25
2023-04-16T00:49:59.154Z,99286.38
2023-04-16T00:52:29.162Z,99287.25
2023-04-16T00:54:58.677Z,99291.47
2023-04-16T00:57:29.892Z,99284.69
2023-04-16T00:59:59.331Z,99300.81
2023-04-16T01:02:28.472Z,99299.97
2023-04-16T01:04:57.575Z,99294.91
2023-04-16T01:07:26.366Z,99301.69
2023-04-16T01:09:55.386Z,99305.94
2023-04-16T01:12:24.159Z,99296.59
2023-04-16T01:14:56.233Z,99311.00
2023-04-16T01:17:25.506Z,99298.28
2023-04-16T01:19:54.360Z,99296.63
2023-04-16T01:22:24.694Z,99303.38
2023-04-16T01:24:53.962Z,99305.91
2023-04-16T01:27:22.762Z,99301.66
2023-04-16T01:29:51.717Z,99311.84
2023-04-16T01:32:25.976Z,99306.78
2023-04-16T01:34:54.875Z,99310.13
2023-04-16T01:37:25.123Z,99310.97
2023-04-16T01:39:54.204Z,99311.81
2023-04-16T01:42:23.003Z,99315.22
2023-04-16T01:44:52.977Z,99314.38
2023-04-16T01:47:21.811Z,99310.13
2023-04-16T01:49:50.700Z,99305.06
2023-04-16T01:52:19.515Z,99315.25
2023-04-16T01:54:49.743Z,99320.34
2023-04-16T01:57:18.516Z,99331.34
2023-04-16T01:59:47.415Z,99322.03
2023-04-16T02:02:17.713Z,99328.84
2023-04-16T02:04:47.738Z,99321.19
2023-04-16T02:07:16.567Z,99323.72
2023-04-16T02:09:45.304Z,99322.03
2023-04-16T02:12:16.065Z,99327.13
2023-04-16T02:14:45.012Z,99322.03
2023-04-16T02:17:17.425Z,99325.41
2023-04-16T02:19:48.094Z,99324.59
2023-04-16T02:22:17.361Z,99329.66
2023-04-16T02:24:46.182Z,99326.28
2023-04-16T02:27:16.746Z,99323.75
2023-04-16T02:29:45.699Z,99320.38
2023-04-16T02:32:18.489Z,99327.13
2023-04-16T02:34:48.879Z,99327.13
2023-04-16T02:37:18.359Z,99328.81
2023-04-16T02:39:47.617Z,99322.03
2023-04-16T02:42:17.958Z,99324.59
2023-04-16T02:44:46.774Z,99330.50
2023-04-16T02:47:15.718Z,99338.13
2023-04-16T02:49:44.641Z,99335.63
2023-04-16T02:52:14.912Z,99306.72
2023-04-16T02:54:44.671Z,99332.22
2023-04-16T02:57:13.477Z,99339.00
2023-04-16T02:59:43.683Z,99343.22
2023-04-16T03:02:14.253Z,99338.13
2023-04-16T03:04:43.235Z,99345.75
2023-04-16T03:07:13.248Z,99349.97
2023-04-16T03:09:42.167Z,99345.72
2023-04-16T03:12:10.920Z,99347.41
2023-04-16T03:14:40.290Z,99349.13
2023-04-16T03:17:10.401Z,99349.94
2023-04-16T03:19:39.667Z,99350.75
2023-04-16T03:22:08.352Z,99350.75
2023-04-16T03:24:38.462Z,99342.28
2023-04-16T03:27:07.388Z,99349.03
2023-04-16T03:29:38.338Z,99360.88
2023-04-16T03:32:13.012Z,99366.78
2023-04-16T03:34:41.863Z,99365.03
2023-04-16T03:37:12.314Z,99375.22
2023-04-16T03:39:41.303Z,99388.72
2023-04-16T03:42:12.852Z,99387.91
2023-04-16T03:44:41.803Z,99387.03
2023-04-16T03:47:12.991Z,99386.16
2023-04-16T03:49:41.951Z,99398.00
2023-04-16T03:52:11.683Z,99399.72
2023-04-16T03:54:40.553Z,99400.53
2023-04-16T03:57:20.791Z,99392.97
2023-04-16T03:59:50.259Z,99399.72
2023-04-16T04:02:21.892Z,99403.16
2023-04-16T04:04:50.907Z,99403.13
2023-04-16T04:07:19.972Z,99408.25
2023-04-16T04:09:49.195Z,99409.94
2023-04-16T04:12:17.894Z,99413.34
2023-04-16T04:14:48.082Z,99420.97
2023-04-16T04:17:16.986Z,99428.63
2023-04-16T04:19:58.159Z,99425.22
2023-04-16T04:22:30.955Z,99433.69
2023-04-16T04:24:59.868Z,99431.97
2023-04-16T04:27:31.546Z,99436.25
2023-04-16T04:30:00.547Z,99435.38
2023-04-16T04:32:29.628Z,99441.31
2023-04-16T04:35:01.570Z,99435.38
2023-04-16T04:37:30.482Z,99443.00
2023-04-16T04:39:59.396Z,99448.94
2023-04-16T04:42:28.513Z,99445.53
2023-04-16T04:44:57.631Z,99447.25
2023-04-16T04:47:27.305Z,99458.31
2023-04-16T04:49:56.054Z,99454.06
2023-04-16T04:52:26.664Z,99449.06
2023-04-16T04:54:55.595Z,99462.69
2023-04-16T04:57:24.374Z,99454.28
2023-04-16T04:59:56.545Z,99455.19
2023-04-16T05:02:26.664Z,99456.09
2023-04-16T05:04:55.373Z,99457.84
2023-04-16T05:07:25.525Z,99459.56
2023-04-16T05:09:54.511Z,99464.66
2023-04-16T05:12:23.256Z,99461.31
2023-04-16T05:14:52.929Z,99461.31
2023-04-16T05:17:21.951Z,99474.03
2023-04-16T05:19:50.684Z,99478.25
2023-04-16T05:22:20.707Z,99485.06
2023-04-16T05:24:50.932Z,99474.94
2023-04-16T05:27:19.728Z,99474.94
2023-04-16T05:29:48.398Z,99480.88
2023-04-16T05:32:17.297Z,99482.63
2023-04-16T05:34:46.035Z,99464.75
2023-04-16T05:37:14.993Z,99479.22
2023-04-16T05:39:43.720Z,99486.03
2023-04-16T05:42:13.992Z,99484.34
2023-04-16T05:44:42.722Z,99492.81
2023-04-16T05:47:11.512Z,99490.28
2023-04-16T05:49:40.210Z,99497.91
2023-04-16T05:52:08.786Z,99488.56
2023-04-16T05:54:37.843Z,99493.66
2023-04-16T05:57:06.543Z,99490.28
2023-04-16T05:59:37.414Z,99490.28
2023-04-16T06:02:06.168Z,99500.44
2023-04-16T06:04:36.258Z,99508.09
2023-04-16T06:07:05.112Z,99497.06
2023-04-16T06:09:33.872Z,99504.72
2023-04-16T06:12:02.573Z,99506.41
2023-04-16T06:14:31.306Z,99505.53
2023-04-16T06:17:01.611Z,99498.75
2023-04-16T06:19:30.286Z,99496.16
2023-04-16T06:21:59.161Z,99503.81
2023-04-16T06:24:27.925Z,99509.81
2023-04-16T06:26:57.628Z,99503.84
2023-04-16T06:29:37.071Z,99508.94
2023-04-16T06:32:11.234Z,99507.22
2023-04-16T06:34:40.334Z,99507.22
2023-04-16T06:37:10.636Z,99510.63
2023-04-16T06:39:39.674Z,99516.56
2023-04-16T06:42:08.377Z,99499.53
2023-04-16T06:44:37.460Z,99500.38
2023-04-16T06:47:06.157Z,99507.16
2023-04-16T06:49:36.336Z,99506.31
2023-04-16T06:52:05.925Z,99510.59
2023-04-16T06:54:34.976Z,99509.69
2023-04-16T06:57:03.587Z,99501.97
2023-04-16T06:59:32.872Z,99507.06
2023-04-16T07:02:03.047Z,99506.19
2023-04-16T07:04:31.950Z,99502.72
2023-04-16T07:07:02.316Z,99501.78
2023-04-16T07:09:31.259Z,99501.72
2023-04-16T07:11:59.976Z,99503.38
2023-04-16T07:14:28.731Z,99504.19
2023-04-16T07:16:57.382Z,99512.56
2023-04-16T07:19:30.625Z,99509.09
2023-04-16T07:21:59.594Z,99509.06
2023-04-16T07:24:29.798Z,99505.66
2023-04-16T07:26:58.473Z,99513.25
2023-04-16T07:29:27.366Z,99507.09
2023-04-16T07:31:56.186Z,99509.41
2023-04-16T07:34:24.989Z,99505.78
2023-04-16T07:36:53.746Z,99503.03
2023-04-16T07:39:22.428Z,99504.69
2023-04-16T07:41:52.541Z,99510.59
2023-04-16T07:44:21.297Z,99506.91
2023-04-16T07:46:50.040Z,99504.16
2023-04-16T07:49:18.897Z,99498.88
2023-04-16T07:51:47.643Z,99504.94
2023-04-16T07:54:16.363Z,99508.28
2023-04-16T07:56:45.258Z,99513.09
2023-04-16T07:59:22.982Z,99518.03
2023-04-16T08:01:55.180Z,99521.72
2023-04-16T08:04:26.474Z,99517.25
2023-04-16T08:06:55.484Z,99517.84
2023-04-16T08:09:25.709Z,99524.56
2023-04-16T08:11:54.411Z,99521.00
2023-04-16T08:14:24.464Z,99532.03
2023-04-16T08:16:53.260Z,99525.56
2023-04-16T08:19:22.009Z,99536.50
2023-04-16T08:21:50.830Z,99538.59
2023-04-16T08:24:19.439Z,99533.19
2023-04-16T08:26:48.347Z,99536.88
2023-04-16T08:29:16.948Z,99537.22
2023-04-16T08:31:47.335Z,99536.41
2023-04-16T08:34:16.263Z,99541.03
2023-04-16T08:36:46.130Z,99542.75
2023-04-16T08:39:15.051Z,99539.28
2023-04-16T08:41:45.363Z,99541.94
2023-04-16T08:44:21.649Z,99541.13
2023-04-16T08:46:57.395Z,99539.53
2023-04-16T08:49:27.520Z,99540.38
2023-04-16T08:51:58.150Z,99537.81
2023-04-16T08:54:35.536Z,99537.97
2023-04-16T08:57:08.011Z,99533.66
2023-04-16T08:59:38.570Z,99532.81
2023-04-16T09:02:11.463Z,99544.66
2023-04-16T09:04:41.819Z,99542.66
2023-04-16T09:07:11.905Z,99540.94
2023-04-16T09:09:42.626Z,99541.13
2023-04-16T09:12:12.447Z,99546.34
2023-04-16T09:14:43.204Z,99536.28
2023-04-16T09:17:15.504Z,99542.69
2023-04-16T09:19:44.414Z,99543.63
2023-04-16T09:22:13.290Z,99540.47
2023-04-16T09:24:42.152Z,99538.06
2023-04-16T09:27:11.264Z,99539.50
2023-04-16T09:29:41.899Z,99538.69
2023-04-16T09:32:13.223Z,99548.25
2023-04-16T09:34:57.445Z,99545.91
2023-04-16T09:37:27.028Z,99546.31
2023-04-16T09:39:57.852Z,99544.09
2023-04-16T09:42:28.929Z,99542.22
2023-04-16T09:45:00.030Z,99537.81
2023-04-16T09:47:42.803Z,99543.53
2023-04-16T09:50:18.262Z,99543.03
2023-04-16T09:52:51.873Z,99539.47
2023-04-16T09:55:25.043Z,99547.53
2023-04-16T09:58:01.400Z,99549.16
2023-04-16T10:00:31.751Z,99542.56
2023-04-16T10:03:08.257Z,99542.81
2023-04-16T10:05:37.177Z,99537.41
2023-04-16T10:08:13.171Z,99539.31
2023-04-16T10:10:42.908Z,99547.22
2023-04-16T10:13:12.894Z,99544.28
2023-04-16T10:15:42.108Z,99537.91
2023-04-16T10:18:12.481Z,99534.47
2023-04-16T10:20:41.672Z,99538.09
2023-04-16T10:23:10.888Z,99530.00
2023-04-16T10:25:40.456Z,99532.09
2023-04-16T10:28:10.684Z,99533.84
2023-04-16T10:30:40.010Z,99534.88
2023-04-16T10:33:09.431Z,99530.91
2023-04-16T10:35:42.401Z,99532.50
2023-04-16T10:38:24.443Z,99528.59
2023-04-16T10:41:00.680Z,99530.19
2023-04-16T10:43:31.661Z,99532.13
2023-04-16T10:46:19.699Z,99528.31
2023-04-16T10:48:50.082Z,99527.69
2023-04-16T10:51:32.378Z,99528.84
2023-04-16T10:54:06.015Z,99532.69
2023-04-16T10:56:35.743Z,99537.19
2023-04-16T10:59:08.873Z,99526.16
2023-04-16T11:01:39.981Z,99526.41
2023-04-16T11:04:31.275Z,99524.00
2023-04-16T11:07:09.484Z,99529.94
2023-04-16T11:09:56.816Z,99521.31
2023-04-16T11:12:27.852Z,99529.81
2023-04-16T11:15:01.149Z,99529.78
2023-04-16T11:17:33.869Z,99526.56
2023-04-16T11:20:03.174Z,99518.97
2023-04-16T11:22:36.751Z,99526.41
2023-04-16T11:25:06.176Z,99522.91
2023-04-16T11:27:34.936Z,99518.09
2023-04-16T11:30:05.892Z,99519.81
2023-04-16T11:32:36.466Z,99516.63
2023-04-16T11:35:14.321Z,99526.41
2023-04-16T11:37:44.624Z,99526.41
2023-04-16T11:40:14.200Z,99531.41
2023-04-16T11:42:44.717Z,99523.66
2023-04-16T11:45:14.226Z,99517.09
2023-04-16T11:47:51.971Z,99521.06
2023-04-16T11:50:23.060Z,99520.84
2023-04-16T11:52:55.037Z,99513.03
2023-04-16T11:55:24.902Z,99501.16
2023-04-16T11:57:53.663Z,99507.97
2023-04-16T12:00:24.911Z,99505.41
2023-04-16T12:02:54.944Z,99510.44
2023-04-16T12:05:32.413Z,99507.97
2023-04-16T12:08:04.307Z,99512.06
2023-04-16T12:10:36.570Z,99513.69
2023-04-16T12:13:13.799Z,99510.44
2023-04-16T12:15:47.397Z,99504.25
2023-04-16T12:18:16.593Z,99511.16
2023-04-16T12:20:46.112Z,99510.03
2023-04-16T12:23:25.651Z,99508.16
2023-04-16T12:25:54.399Z,99506.44
2023-04-16T12:28:31.184Z,99503.91
2023-04-16T12:31:00.368Z,99504.88
2023-04-16T12:33:29.217Z,99502.22
2023-04-16T12:35:58.260Z,99504.88
2023-04-16T12:38:28.925Z,99502.91
2023-04-16T12:40:58.557Z,99500.88
2023-04-16T12:43:27.763Z,99499.88
2023-04-16T12:45:56.486Z,99501.50
2023-04-16T12:48:25.413Z,99493.06
2023-04-16T12:50:55.270Z,99499.16
2023-04-16T12:53:24.407Z,99493.28
2023-04-16T12:55:54.741Z,99496.06
2023-04-16T12:58:23.430Z,99494.59
2023-04-16T13:00:52.023Z,99492.41
2023-04-16T13:03:22.326Z,99488.16
2023-04-16T13:05:51.306Z,99489.03
2023-04-16T13:08:19.946Z,99485.00
2023-04-16T13:10:48.686Z,99487.69
2023-04-16T13:13:18.848Z,99487.78
2023-04-16T13:15:47.541Z,99487.22
2023-04-16T13:18:16.798Z,99486.38
2023-04-16T13:20:45.506Z,99492.38
2023-04-16T13:23:14.456Z,99485.50
2023-04-16T13:25:43.185Z,99484.66
2023-04-16T13:28:12.069Z,99489.81
2023-04-16T13:30:42.337Z,99485.69
2023-04-16T13:33:12.354Z,99487.22
2023-04-16T13:35:41.286Z,99490.53
2023-04-16T13:38:10.025Z,99480.78
2023-04-16T13:40:39.388Z,99476.16
2023-04-16T13:43:08.146Z,99474.09
2023-04-16T13:45:36.882Z,99477.16
2023-04-16T13:48:07.371Z,99471.84
2023-04-16T13:50:36.496Z,99478.88
2023-04-16T13:53:05.292Z,99477.22
2023-04-16T13:55:34.131Z,99478.81
2023-04-16T13:58:02.961Z,99482.13
2023-04-16T14:00:31.814Z,99478.81
2023-04-16T14:03:00.844Z,99477.22
2023-04-16T14:05:31.375Z,99482.38
2023-04-16T14:08:00.170Z,99479.88
2023-04-16T14:10:29.023Z,99476.72
2023-04-16T14:12:59.070Z,99480.91
2023-04-16T14:15:30.334Z,99480.91
2023-04-16T14:17:59.285Z,99482.75
2023-04-16T14:20:28.000Z,99473.63
2023-04-16T14:22:58.366Z,99478.19
2023-04-16T14:25:27.314Z,99478.13
2023-04-16T14:27:56.239Z,99474.72
2023-04-16T14:30:25.067Z,99479.06
2023-04-16T14:32:53.903Z,99476.41
2023-04-16T14:35:22.772Z,99483.28
2023-04-16T14:37:51.636Z,99483.50
2023-04-16T14:40:22.039Z,99487.09
2023-04-16T14:42:50.996Z,99489.94
2023-04-16T14:45:20.063Z,99489.19
2023-04-16T14:47:50.048Z,99500.41
2023-04-16T14:50:19.021Z,99492.81
2023-04-16T14:52:47.972Z,99506.66
2023-04-16T14:55:16.813Z,99498.19
2023-04-16T14:57:46.949Z,99507.00
2023-04-16T15:00:19.173Z,99507.19
2023-04-16T15:02:48.550Z,99509.88
2023-04-16T15:05:17.510Z,99509.97
2023-04-16T15:07:46.343Z,99517.78
2023-04-16T15:10:15.343Z,99517.91
2023-04-16T15:12:44.288Z,99512.84
2023-04-16T15:15:14.555Z,99519.81
2023-04-16T15:17:44.728Z,99511.34
2023-04-16T15:20:14.351Z,99511.56
2023-04-16T15:22:43.227Z,99520.41
2023-04-16T15:25:12.058Z,99512.09
2023-04-16T15:27:40.869Z,99523.47
2023-04-16T15:30:10.559Z,99527.94
2023-04-16T15:32:40.566Z,99529.09
2023-04-16T15:35:11.384Z,99535.31
2023-04-16T15:37:41.098Z,99537.13
2023-04-16T15:40:10.904Z,99539.69
2023-04-16T15:42:41.410Z,99544.97
2023-04-16T15:45:10.614Z,99543.34
2023-04-16T15:47:41.995Z,99546.84
2023-04-16T15:50:11.824Z,99544.41
2023-04-16T15:52:41.109Z,99535.81
2023-04-16T15:55:10.768Z,99549.38
2023-04-16T15:57:39.543Z,99540.88
2023-04-16T16:00:14.423Z,99535.81
2023-04-16T16:02:47.390Z,99550.28
2023-04-16T16:05:17.418Z,99555.56
2023-04-16T16:07:46.603Z,99558.16
2023-04-16T16:10:15.358Z,99554.72
2023-04-16T16:12:44.172Z,99555.69
2023-04-16T16:15:12.969Z,99556.69
2023-04-16T16:17:41.948Z,99551.78
2023-04-16T16:20:13.082Z,99551.91
2023-04-16T16:22:45.528Z,99558.84
2023-04-16T16:25:14.535Z,99559.00
2023-04-16T16:27:43.220Z,99553.94
2023-04-16T16:30:12.948Z,99554.75
2023-04-16T16:32:43.860Z,99559.88
2023-04-16T16:35:14.265Z,99551.31
2023-04-16T16:37:43.537Z,99561.56
2023-04-16T16:40:12.843Z,99553.91
2023-04-16T16:42:42.427Z,99562.44
2023-04-16T16:45:12.346Z,99554.75
2023-04-16T16:47:41.257Z,99567.56
2023-04-16T16:50:11.609Z,99566.69
2023-04-16T16:52:42.038Z,99571.03
2023-04-16T16:55:11.346Z,99577.09
2023-04-16T16:57:40.083Z,99569.63
2023-04-16T17:00:14.654Z,99583.28
2023-04-16T17:02:44.405Z,99579.94
2023-04-16T17:05:13.984Z,99577.41
2023-04-16T17:07:44.222Z,99568.06
2023-04-16T17:10:20.332Z,99579.06
2023-04-16T17:12:50.700Z,99579.97
2023-04-16T17:15:21.763Z,99579.13
2023-04-16T17:17:50.768Z,99583.38
2023-04-16T17:20:20.949Z,99572.28
2023-04-16T17:22:51.361Z,99580.00
2023-04-16T17:25:20.347Z,99584.34
2023-04-16T17:27:49.091Z,99576.72
2023-04-16T17:30:18.704Z,99574.22
2023-04-16T17:32:47.572Z,99574.25
2023-04-16T17:35:16.553Z,99569.28
2023-04-16T17:37:45.226Z,99574.41
2023-04-16T17:40:18.400Z,99573.59
2023-04-16T17:42:47.298Z,99575.31
2023-04-16T17:45:16.172Z,99579.66
2023-04-16T17:47:45.606Z,99580.53
2023-04-16T17:50:14.319Z,99581.38
2023-04-16T17:52:43.095Z,99589.94
2023-04-16T17:55:13.468Z,99585.69
2023-04-16T17:57:45.112Z,99587.44
2023-04-16T18:00:14.788Z,99579.84
2023-04-16T18:02:44.092Z,99594.31
2023-04-16T18:05:13.002Z,99590.94
2023-04-16T18:07:41.762Z,99588.41
2023-04-16T18:10:11.573Z,99583.31
2023-04-16T18:12:40.640Z,99584.19
2023-04-16T18:15:12.231Z,99592.75
2023-04-16T18:17:43.902Z,99591.06
2023-04-16T18:20:16.911Z,99587.66
2023-04-16T18:22:45.891Z,99584.28
2023-04-16T18:25:14.642Z,99589.41
2023-04-16T18:27:43.434Z,99589.44
2023-04-16T18:33:09.918Z,99593.78
2023-04-16T18:35:36.272Z,99597.28
2023-04-16T18:38:05.753Z,99589.56
2023-04-16T18:40:36.333Z,99587.88
2023-04-16T18:43:05.283Z,99593.00
2023-04-16T18:45:36.430Z,99593.81
2023-04-16T18:48:05.437Z,99588.72
2023-04-16T18:50:34.468Z,99593.00
2023-04-16T18:53:03.707Z,99577.69
2023-04-16T18:55:32.420Z,99584.53
2023-04-16T18:58:01.578Z,99592.22
2023-04-16T19:00:30.708Z,99589.72
2023-04-16T19:03:01.065Z,99595.75
2023-04-16T19:05:30.292Z,99600.06
2023-04-16T19:07:59.331Z,99600.06
2023-04-16T19:10:28.173Z,99595.75
2023-04-16T19:12:58.144Z,99588.09
2023-04-16T19:15:29.226Z,99583.81
2023-04-16T19:18:01.788Z,99588.06
2023-04-16T19:20:30.848Z,99584.63
2023-04-16T19:22:59.897Z,99585.50
2023-04-16T19:25:29.155Z,99588.16
2023-04-16T19:27:57.920Z,99588.19
2023-04-16T19:30:26.691Z,99589.91
2023-04-16T19:32:55.716Z,99584.78
2023-04-16T19:35:27.259Z,99594.19
2023-04-16T19:37:56.752Z,99593.31
2023-04-16T19:40:25.580Z,99591.59
2023-04-16T19:42:55.052Z,99588.19
2023-04-16T19:45:26.192Z,99584.78
2023-04-16T19:47:55.093Z,99584.78
2023-04-16T19:50:25.290Z,99587.34
2023-04-16T19:52:54.125Z,99580.50
2023-04-16T19:55:22.910Z,99584.78
2023-04-16T19:57:51.803Z,99573.75
2023-04-16T20:00:21.158Z,99576.31
2023-04-16T20:02:50.169Z,99573.81
2023-04-16T20:05:19.207Z,99571.28
2023-04-16T20:07:52.048Z,99578.94
2023-04-16T20:10:22.557Z,99566.16
2023-04-16T20:12:51.739Z,99567.88
2023-04-16T20:15:20.588Z,99569.59
2023-04-16T20:17:50.280Z,99563.69
2023-04-16T20:20:18.791Z,99562.84
2023-04-16T20:22:47.587Z,99562.84
2023-04-16T20:25:19.375Z,99562.91
2023-04-16T20:27:48.368Z,99566.31
2023-04-16T20:30:18.024Z,99565.47
2023-04-16T20:32:46.609Z,99564.63
2023-04-16T20:35:15.619Z,99566.34
2023-04-16T20:37:44.651Z,99565.53
2023-04-16T20:40:14.256Z,99568.09
2023-04-16T20:42:46.748Z,99559.59
2023-04-16T20:45:15.698Z,99563.00
2023-04-16T20:47:44.769Z,99554.50
2023-04-16T20:50:13.969Z,99549.41
2023-04-16T20:52:43.527Z,99549.44
2023-04-16T20:55:11.960Z,99557.97
2023-04-16T20:57:40.775Z,99560.53
2023-04-16T21:00:12.587Z,99558.00
2023-04-16T21:02:41.533Z,99553.75
2023-04-16T21:05:14.441Z,99566.56
2023-04-16T21:07:43.285Z,99548.72
2023-04-16T21:10:12.663Z,99566.59
2023-04-16T21:12:41.504Z,99559.81
2023-04-16T21:15:12.512Z,99561.53
2023-04-16T21:17:41.397Z,99562.38
2023-04-16T21:20:13.707Z,99567.50
2023-04-16T21:22:42.552Z,99562.41
2023-04-16T21:25:11.851Z,99559.88
2023-04-16T21:27:40.696Z,99556.47
2023-04-16T21:30:12.580Z,99552.22
2023-04-16T21:32:41.805Z,99536.91
2023-04-16T21:35:11.448Z,99548.81
2023-04-16T21:37:39.885Z,99550.53
2023-04-16T21:40:09.542Z,99543.72
2023-04-16T21:42:40.141Z,99549.69
2023-04-16T21:45:10.088Z,99543.75
2023-04-16T21:47:40.489Z,99531.00
2023-04-16T21:50:10.278Z,99542.91
2023-04-16T21:52:46.934Z,99542.06
2023-04-16T21:55:15.755Z,99546.31
2023-04-16T21:57:44.492Z,99543.75
2023-04-16T22:00:14.470Z,99537.00
2023-04-16T22:02:44.861Z,99548.91
2023-04-16T22:05:13.859Z,99547.19
2023-04-16T22:07:42.725Z,99546.34
2023-04-16T22:10:13.715Z,99542.94
2023-04-16T22:12:45.156Z,99548.03
2023-04-16T22:15:15.860Z,99551.44
2023-04-16T22:17:47.259Z,99531.03
2023-04-16T22:20:16.699Z,99537.84
2023-04-16T22:22:45.706Z,99532.72
2023-04-16T22:25:14.632Z,99531.91
2023-04-16T22:27:43.327Z,99529.34
2023-04-16T22:30:13.379Z,99531.88
2023-04-16T22:32:42.204Z,99528.50
2023-04-16T22:35:12.864Z,99534.47
2023-04-16T22:37:41.605Z,99531.91
2023-04-16T22:40:11.968Z,99534.44
2023-04-16T22:42:40.794Z,99528.47
2023-04-16T22:45:10.169Z,99525.94
2023-04-16T22:47:39.425Z,99527.63
2023-04-16T22:50:11.181Z,99528.50
2023-04-16T22:52:41.528Z,99525.94
2023-04-16T22:55:10.961Z,99524.22
2023-04-16T22:57:39.957Z,99517.41
2023-04-16T23:00:16.067Z,99519.94
2023-04-16T23:02:45.740Z,99503.81
2023-04-16T23:05:14.382Z,99506.34
2023-04-16T23:07:44.566Z,99505.50
2023-04-16T23:10:13.426Z,99509.75
2023-04-16T23:12:42.100Z,99491.91
2023-04-16T23:15:40.362Z,99514.00
2023-04-16T23:18:09.157Z,99506.34
2023-04-16T23:20:37.953Z,99503.81
2023-04-16T23:23:08.261Z,99498.72
2023-04-16T23:25:37.045Z,99495.31
2023-04-16T23:28:05.920Z,99503.78
2023-04-16T23:30:34.712Z,99493.59
2023-04-16T23:33:04.701Z,99488.50
2023-04-16T23:35:33.558Z,99485.94
2023-04-16T23:38:02.323Z,99486.78
2023-04-16T23:40:32.571Z,99492.69
2023-04-16T23:43:01.282Z,99498.66
2023-04-16T23:45:30.252Z,99492.72
2023-04-16T23:47:58.997Z,99496.94
2023-04-16T23:50:28.192Z,99491.84
2023-04-16T23:52:57.394Z,99485.06
2023-04-16T23:55:26.706Z,99488.47
2023-04-16T23:57:56.908Z,99483.38
